Time;durP1;ratioP1;P1;durP2;ratioP2;P2;SDS_P1;SDS_P2;PMS_P1;PMS_P2;Temp;Humidity;BMP_temperature;BMP_pressure;BME280_temperature;BME280_humidity;BME280_pressure;Samples;Min_cycle;Max_cycle;Signal;HPM_P1;HPM_P2
2023/05/09 00:01:18;;;;;;;3.23;1.90;;;13.50;99.90;;;;;;4844118;29;20255;-56
2023/05/09 00:03:46;;;;;;;3.67;1.87;;;13.50;99.90;;;;;;4844536;29;20235;-56
2023/05/09 00:06:15;;;;;;;2.43;1.70;;;13.50;99.90;;;;;;4834227;29;20235;-56
2023/05/09 00:08:43;;;;;;;2.03;1.83;;;13.50;99.90;;;;;;4825908;29;20244;-55
2023/05/09 00:11:11;;;;;;;3.30;1.90;;;13.40;99.90;;;;;;4825897;29;20243;-56
2023/05/09 00:13:40;;;;;;;3.63;2.10;;;13.40;99.90;;;;;;4825659;29;20250;-56
2023/05/09 00:16:09;;;;;;;6.37;1.97;;;13.40;99.90;;;;;;4825840;29;20235;-55
2023/05/09 00:18:41;;;;;;;4.00;1.80;;;13.40;99.90;;;;;;4833328;29;20290;-56
2023/05/09 00:21:09;;;;;;;4.77;2.10;;;13.40;99.90;;;;;;4828072;29;20282;-56
2023/05/09 00:23:38;;;;;;;5.87;2.07;;;13.40;99.90;;;;;;4836402;29;20234;-55
2023/05/09 00:26:06;;;;;;;2.17;1.90;;;13.30;99.90;;;;;;4843974;29;20758;-55
2023/05/09 00:28:34;;;;;;;5.33;2.10;;;13.30;99.90;;;;;;4843771;29;20242;-56
2023/05/09 00:31:02;;;;;;;3.53;1.90;;;13.30;99.90;;;;;;4843729;29;20239;-56
2023/05/09 00:33:31;;;;;;;2.27;1.70;;;13.30;99.90;;;;;;4843747;29;20687;-57
2023/05/09 00:36:00;;;;;;;2.03;1.77;;;13.30;99.90;;;;;;4835822;29;20727;-56
2023/05/09 00:38:28;;;;;;;4.57;1.97;;;13.20;99.90;;;;;;4824014;29;20230;-56
2023/05/09 00:40:56;;;;;;;4.87;2.00;;;13.30;99.90;;;;;;4825445;29;20243;-55
2023/05/09 00:43:24;;;;;;;6.63;2.00;;;13.20;99.90;;;;;;4824343;29;20258;-55
2023/05/09 00:45:52;;;;;;;4.57;1.83;;;13.20;99.90;;;;;;4824100;29;20318;-57
2023/05/09 00:48:22;;;;;;;3.37;2.00;;;13.20;99.90;;;;;;4828622;29;20257;-56
2023/05/09 00:50:51;;;;;;;6.40;2.23;;;13.20;99.90;;;;;;4833242;29;20232;-56
2023/05/09 00:53:21;;;;;;;5.10;2.00;;;13.10;99.90;;;;;;4835896;29;20237;-56
2023/05/09 00:55:49;;;;;;;6.23;2.00;;;13.20;99.90;;;;;;4842121;29;20258;-56
2023/05/09 00:58:18;;;;;;;3.60;2.30;;;13.10;99.90;;;;;;4840401;29;20239;-56
2023/05/09 01:00:46;;;;;;;4.57;2.00;;;13.10;99.90;;;;;;4823300;29;20715;-56
2023/05/09 01:03:15;;;;;;;4.93;2.00;;;13.10;99.90;;;;;;4825107;29;20319;-56
2023/05/09 01:05:54;;;;;;;5.77;2.30;;;13.00;99.90;;;;;;4827000;29;20319;-56
2023/05/09 01:08:46;;;;;;;7.40;2.10;;;13.00;99.90;;;;;;4825031;29;20317;-56
2023/05/09 01:11:23;;;;;;;6.00;1.80;;;13.00;99.90;;;;;;4825172;29;20239;-56
2023/05/09 01:14:03;;;;;;;2.50;1.93;;;13.00;99.90;;;;;;4825802;29;20224;-55
2023/05/09 01:16:38;;;;;;;2.87;2.07;;;12.90;99.90;;;;;;4824877;29;20254;-56
2023/05/09 01:19:26;;;;;;;4.37;2.03;;;12.90;99.90;;;;;;4832674;29;20627;-56
2023/05/09 01:21:56;;;;;;;4.00;2.17;;;12.90;99.90;;;;;;4830069;29;20261;-55
2023/05/09 01:25:01;;;;;;;2.83;2.20;;;12.80;99.90;;;;;;4838141;29;20227;-54
2023/05/09 01:27:43;;;;;;;4.80;2.33;;;12.80;99.90;;;;;;4834110;29;20715;-56
2023/05/09 01:30:14;;;;;;;3.97;2.23;;;12.70;99.90;;;;;;4842622;29;20227;-54
2023/05/09 01:32:43;;;;;;;2.40;1.87;;;12.70;99.90;;;;;;4841515;29;20228;-56
2023/05/09 01:35:14;;;;;;;5.57;1.90;;;12.70;99.90;;;;;;4840872;29;20234;-56
2023/05/09 01:37:44;;;;;;;5.83;2.23;;;12.70;99.90;;;;;;4824406;29;20586;-56
2023/05/09 01:40:16;;;;;;;2.47;1.83;;;12.60;99.90;;;;;;4824592;29;20231;-56
2023/05/09 01:42:49;;;;;;;2.97;2.07;;;12.60;99.90;;;;;;4824523;29;21364;-56
2023/05/09 01:45:20;;;;;;;6.80;2.37;;;12.60;99.90;;;;;;4823407;29;20322;-57
2023/05/09 01:47:49;;;;;;;3.37;2.00;;;12.50;99.90;;;;;;4825525;29;20243;-56
2023/05/09 01:50:19;;;;;;;4.20;2.40;;;12.50;99.90;;;;;;4835039;29;20572;-56
2023/05/09 01:52:52;;;;;;;3.43;2.40;;;12.50;99.90;;;;;;4843787;29;20236;-55
2023/05/09 01:55:24;;;;;;;3.80;2.20;;;12.50;99.90;;;;;;4842594;29;20235;-56
2023/05/09 01:57:54;;;;;;;4.30;2.20;;;12.50;99.90;;;;;;4841276;29;20243;-55
2023/05/09 02:00:24;;;;;;;4.27;2.40;;;12.50;99.90;;;;;;4855931;29;20264;-56
2023/05/09 02:02:54;;;;;;;3.93;1.80;;;12.40;99.90;;;;;;4842394;29;20238;-56
2023/05/09 02:05:27;;;;;;;2.40;2.03;;;12.40;99.90;;;;;;4839290;29;20246;-56
2023/05/09 02:07:57;;;;;;;3.10;2.40;;;12.40;99.90;;;;;;4822793;29;20276;-56
2023/05/09 02:10:27;;;;;;;4.43;2.50;;;12.40;99.90;;;;;;4824392;29;20711;-55
2023/05/09 02:12:56;;;;;;;4.50;2.33;;;12.30;99.90;;;;;;4824152;29;20242;-56
2023/05/09 02:15:26;;;;;;;5.13;2.30;;;12.30;99.90;;;;;;4822981;29;20247;-56
2023/05/09 02:17:54;;;;;;;2.47;2.03;;;12.30;99.90;;;;;;4826116;29;20233;-55
2023/05/09 02:20:23;;;;;;;3.53;2.07;;;12.30;99.90;;;;;;4834083;29;20236;-56
2023/05/09 02:22:51;;;;;;;4.00;2.50;;;12.30;99.90;;;;;;4833193;29;20583;-56
2023/05/09 02:25:20;;;;;;;4.63;2.67;;;12.20;99.90;;;;;;4842465;29;20223;-56
2023/05/09 02:27:48;;;;;;;3.67;2.57;;;12.30;99.90;;;;;;4841852;29;20244;-56
2023/05/09 02:30:23;;;;;;;4.17;2.40;;;12.20;99.90;;;;;;4841730;29;20741;-56
2023/05/09 02:32:57;;;;;;;6.80;2.80;;;12.20;99.90;;;;;;4841995;29;20383;-56
2023/05/09 02:35:27;;;;;;;3.97;2.33;;;12.20;99.90;;;;;;4838263;29;20242;-56
2023/05/09 02:37:56;;;;;;;2.47;2.03;;;12.10;99.90;;;;;;4822487;29;20237;-56
2023/05/09 02:40:27;;;;;;;4.33;2.73;;;12.10;99.90;;;;;;4822640;29;20243;-54
2023/05/09 02:42:56;;;;;;;4.77;2.40;;;12.10;99.90;;;;;;4823780;29;20691;-56
2023/05/09 02:45:24;;;;;;;2.60;2.30;;;12.10;99.90;;;;;;4823969;29;20250;-55
2023/05/09 02:47:54;;;;;;;2.80;2.50;;;12.00;99.90;;;;;;4825519;29;20600;-56
2023/05/09 02:50:23;;;;;;;2.60;2.30;;;12.10;99.90;;;;;;4832621;29;20231;-56
2023/05/09 02:52:51;;;;;;;7.57;2.80;;;12.00;99.90;;;;;;4845370;29;20232;-54
2023/05/09 02:55:19;;;;;;;4.13;2.80;;;12.00;99.90;;;;;;4841891;29;20230;-55
2023/05/09 02:57:47;;;;;;;6.10;2.30;;;11.90;99.90;;;;;;4838803;29;20695;-57
2023/05/09 03:00:20;;;;;;;4.47;2.50;;;11.90;99.90;;;;;;4840208;29;20234;-56
2023/05/09 03:02:49;;;;;;;4.63;2.70;;;11.80;99.90;;;;;;4840468;29;20234;-55
2023/05/09 03:05:19;;;;;;;2.60;2.40;;;11.80;99.90;;;;;;4837726;29;20278;-56
2023/05/09 03:07:47;;;;;;;4.17;2.33;;;11.70;99.90;;;;;;4821963;29;20285;-56
2023/05/09 03:10:16;;;;;;;4.37;2.80;;;11.70;99.90;;;;;;4823799;29;20261;-56
2023/05/09 03:12:44;;;;;;;6.20;2.80;;;11.70;99.90;;;;;;4825020;29;20318;-56
2023/05/09 03:15:12;;;;;;;6.67;2.80;;;11.60;99.90;;;;;;4826925;29;20227;-56
2023/05/09 03:17:44;;;;;;;2.60;2.40;;;11.60;99.90;;;;;;4826032;29;20708;-55
2023/05/09 03:20:12;;;;;;;5.13;3.00;;;11.50;99.90;;;;;;4836860;29;20595;-56
2023/05/09 03:22:41;;;;;;;3.07;2.50;;;11.50;99.90;;;;;;4833025;29;20241;-56
2023/05/09 03:25:11;;;;;;;6.60;2.90;;;11.50;99.90;;;;;;4843892;29;20714;-55
2023/05/09 03:27:40;;;;;;;5.17;2.80;;;11.60;99.90;;;;;;4844959;29;20233;-56
2023/05/09 03:30:13;;;;;;;4.03;2.70;;;11.60;99.90;;;;;;4843419;29;20294;-55
2023/05/09 03:32:43;;;;;;;5.10;2.97;;;11.60;99.90;;;;;;4843671;29;20626;-56
2023/05/09 03:35:11;;;;;;;4.53;3.23;;;11.60;99.90;;;;;;4837499;29;20230;-56
2023/05/09 03:37:41;;;;;;;4.67;3.17;;;11.50;99.90;;;;;;4825030;29;20313;-55
2023/05/09 03:40:10;;;;;;;6.07;3.00;;;11.50;99.90;;;;;;4825170;29;20600;-55
2023/05/09 03:42:46;;;;;;;3.10;2.80;;;11.50;99.90;;;;;;4825053;29;20259;-56
2023/05/09 03:45:14;;;;;;;4.40;3.40;;;11.40;99.90;;;;;;4825083;29;20250;-56
2023/05/09 03:47:44;;;;;;;5.10;3.37;;;11.40;99.90;;;;;;4825686;29;20249;-56
2023/05/09 03:50:13;;;;;;;5.87;3.50;;;11.40;99.90;;;;;;4851065;29;20316;-55
2023/05/09 03:52:44;;;;;;;3.60;3.17;;;11.30;99.90;;;;;;4833292;29;20226;-55
2023/05/09 03:55:15;;;;;;;4.23;3.23;;;11.30;99.90;;;;;;4858775;29;20584;-56
2023/05/09 03:57:43;;;;;;;4.17;3.20;;;11.30;99.90;;;;;;4843244;29;20267;-55
2023/05/09 04:00:12;;;;;;;3.73;3.07;;;11.40;99.90;;;;;;4843036;29;20233;-55
2023/05/09 04:02:40;;;;;;;4.60;3.30;;;11.30;99.90;;;;;;4844554;29;20234;-54
2023/05/09 04:05:16;;;;;;;4.27;3.40;;;11.30;99.90;;;;;;4840777;29;20270;-56
2023/05/09 04:07:46;;;;;;;4.97;3.30;;;11.30;99.90;;;;;;4825710;29;20745;-56
2023/05/09 04:10:16;;;;;;;4.60;3.27;;;11.30;99.90;;;;;;4821665;29;20239;-56
2023/05/09 04:12:48;;;;;;;6.47;3.80;;;11.30;99.90;;;;;;4806611;29;20239;-55
2023/05/09 04:15:17;;;;;;;4.63;3.00;;;11.30;99.90;;;;;;4809256;29;20231;-56
2023/05/09 04:17:46;;;;;;;23.10;4.40;;;11.30;99.90;;;;;;4825453;29;20248;-56
2023/05/09 04:20:15;;;;;;;5.13;3.63;;;11.40;99.90;;;;;;4835256;29;20234;-56
2023/05/09 04:22:43;;;;;;;3.53;3.23;;;11.40;99.90;;;;;;4832390;29;20242;-56
2023/05/09 04:25:18;;;;;;;7.30;3.47;;;11.40;99.90;;;;;;4858282;29;20234;-56
2023/05/09 04:27:47;;;;;;;4.87;3.47;;;11.50;99.90;;;;;;4842503;29;20688;-56
2023/05/09 04:30:16;;;;;;;4.73;3.60;;;11.50;99.90;;;;;;4857786;29;20600;-56
2023/05/09 04:32:45;;;;;;;6.33;3.53;;;11.50;99.90;;;;;;4842564;29;20917;-56
2023/05/09 04:35:15;;;;;;;5.37;3.67;;;11.60;99.90;;;;;;4842990;29;20269;-56
2023/05/09 04:37:48;;;;;;;4.73;3.60;;;11.60;99.90;;;;;;4842436;29;20237;-56
2023/05/09 04:40:19;;;;;;;5.90;3.43;;;11.60;99.90;;;;;;4842583;29;20247;-56
2023/05/09 04:42:56;;;;;;;4.27;3.53;;;11.80;99.90;;;;;;4842507;29;20325;-56
2023/05/09 04:45:27;;;;;;;5.43;3.70;;;11.90;99.90;;;;;;4826819;29;20242;-55
2023/05/09 04:47:57;;;;;;;4.67;3.57;;;11.90;99.90;;;;;;4826365;29;20340;-57
2023/05/09 04:50:25;;;;;;;4.60;3.63;;;12.00;99.90;;;;;;4835193;29;20230;-54
2023/05/09 04:52:53;;;;;;;5.47;3.70;;;12.10;99.90;;;;;;4834703;29;20801;-56
2023/05/09 04:55:22;;;;;;;6.23;3.73;;;12.20;99.90;;;;;;4841406;29;20241;-56
2023/05/09 04:57:51;;;;;;;5.13;3.60;;;12.30;99.90;;;;;;4823011;29;20314;-56
2023/05/09 05:00:20;;;;;;;7.63;4.40;;;12.40;99.90;;;;;;4843257;29;20262;-56
2023/05/09 05:02:49;;;;;;;4.50;3.57;;;12.50;99.90;;;;;;4805651;29;20605;-55
2023/05/09 05:05:17;;;;;;;4.10;3.70;;;12.70;99.90;;;;;;4817960;29;20239;-56
2023/05/09 05:07:52;;;;;;;4.27;3.80;;;12.70;99.90;;;;;;4819657;29;20241;-56
2023/05/09 05:10:24;;;;;;;4.20;3.80;;;12.80;99.90;;;;;;4821743;29;20295;-55
2023/05/09 05:13:00;;;;;;;4.10;3.70;;;12.80;99.90;;;;;;4803943;29;20234;-55
2023/05/09 05:15:29;;;;;;;4.07;3.63;;;12.90;99.90;;;;;;4805356;29;20278;-55
2023/05/09 05:17:58;;;;;;;5.90;3.70;;;13.00;99.90;;;;;;4819939;29;20241;-55
2023/05/09 05:20:30;;;;;;;4.40;3.53;;;13.10;99.90;;;;;;4823602;29;21291;-56
2023/05/09 05:22:59;;;;;;;3.90;3.50;;;13.20;99.90;;;;;;4806842;29;20300;-55
2023/05/09 05:25:30;;;;;;;6.93;3.80;;;13.20;99.90;;;;;;4805548;29;20235;-54
2023/05/09 05:28:00;;;;;;;5.37;3.80;;;13.30;99.90;;;;;;4803406;29;20228;-56
2023/05/09 05:30:28;;;;;;;4.90;3.80;;;13.40;99.90;;;;;;4804168;29;20588;-56
2023/05/09 05:32:59;;;;;;;5.47;3.87;;;13.60;99.90;;;;;;4805220;29;20242;-54
2023/05/09 05:35:28;;;;;;;5.37;3.73;;;13.70;99.90;;;;;;4806994;29;20607;-52
2023/05/09 05:37:57;;;;;;;4.17;3.60;;;13.80;99.90;;;;;;4819402;29;20283;-53
2023/05/09 05:40:26;;;;;;;3.90;3.50;;;13.90;99.90;;;;;;4820567;29;20235;-54
2023/05/09 05:42:56;;;;;;;5.20;3.83;;;14.10;99.90;;;;;;4820692;29;20247;-54
2023/05/09 05:45:25;;;;;;;5.10;3.77;;;14.00;99.90;;;;;;4821429;29;20251;-55
2023/05/09 05:47:56;;;;;;;6.77;4.03;;;14.00;99.90;;;;;;4803675;29;20239;-56
2023/05/09 05:50:25;;;;;;;4.87;3.67;;;14.30;99.90;;;;;;4804999;29;20246;-54
2023/05/09 05:52:54;;;;;;;4.43;3.50;;;14.50;99.90;;;;;;4806953;29;20220;-53
2023/05/09 05:55:23;;;;;;;4.47;3.50;;;14.60;99.90;;;;;;4805998;29;20760;-54
2023/05/09 05:57:51;;;;;;;5.87;3.87;;;14.80;99.90;;;;;;4803638;29;20236;-56
2023/05/09 06:00:21;;;;;;;5.73;3.70;;;15.00;99.90;;;;;;4806351;29;20713;-56
2023/05/09 06:02:59;;;;;;;7.13;3.77;;;15.30;99.90;;;;;;4804988;29;20268;-56
2023/05/09 06:05:47;;;;;;;6.53;4.13;;;15.40;99.90;;;;;;4807270;29;20250;-56
2023/05/09 06:08:16;;;;;;;4.83;3.47;;;15.70;99.90;;;;;;4803442;29;20642;-55
2023/05/09 06:10:44;;;;;;;6.17;3.53;;;15.80;99.90;;;;;;4805174;29;21111;-55
2023/05/09 06:13:12;;;;;;;3.60;3.30;;;15.70;99.90;;;;;;4807199;29;20721;-54
2023/05/09 06:15:46;;;;;;;6.47;3.67;;;15.90;99.90;;;;;;4804795;29;21389;-53
2023/05/09 06:18:15;;;;;;;5.70;3.80;;;16.00;99.90;;;;;;4802975;29;20240;-55
2023/05/09 06:20:43;;;;;;;4.00;3.50;;;15.90;99.90;;;;;;4806478;29;20264;-54
2023/05/09 06:23:11;;;;;;;3.90;3.37;;;16.00;99.90;;;;;;4820821;29;20322;-55
2023/05/09 06:25:40;;;;;;;5.37;4.03;;;16.10;99.90;;;;;;4804562;29;20244;-56
2023/05/09 06:28:08;;;;;;;5.27;3.47;;;16.10;99.90;;;;;;4818749;29;20248;-54
2023/05/09 06:30:36;;;;;;;4.13;3.70;;;16.30;99.90;;;;;;4805203;29;20510;-55
2023/05/09 06:33:06;;;;;;;5.13;3.37;;;16.40;99.90;;;;;;4804906;29;20273;-53
2023/05/09 06:35:34;;;;;;;4.77;3.47;;;16.70;99.90;;;;;;4806244;29;20824;-54
2023/05/09 06:38:02;;;;;;;7.53;3.93;;;16.80;99.90;;;;;;4804515;29;20244;-56
2023/05/09 06:40:30;;;;;;;5.87;4.00;;;16.90;99.90;;;;;;4806386;29;20728;-55
2023/05/09 06:42:58;;;;;;;5.93;3.63;;;16.90;99.90;;;;;;4806276;29;20675;-53
2023/05/09 06:45:27;;;;;;;4.13;3.73;;;17.10;99.90;;;;;;4808194;29;20708;-56
2023/05/09 06:47:55;;;;;;;4.80;3.80;;;17.10;99.90;;;;;;4811436;29;20780;-54
2023/05/09 06:50:25;;;;;;;5.93;4.00;;;17.30;99.90;;;;;;4813771;29;20271;-56
2023/05/09 06:52:53;;;;;;;4.83;4.33;;;17.40;99.90;;;;;;4812924;29;20319;-54
2023/05/09 06:55:21;;;;;;;6.30;3.20;;;17.60;99.90;;;;;;4813439;29;21455;-56
2023/05/09 06:57:49;;;;;;;3.97;3.30;;;17.80;99.90;;;;;;4811680;29;20244;-54
2023/05/09 07:00:18;;;;;;;4.40;3.50;;;17.90;99.90;;;;;;4810086;29;20781;-55
2023/05/09 07:02:46;;;;;;;4.40;3.63;;;17.90;99.90;;;;;;4810015;29;20247;-54
2023/05/09 07:05:14;;;;;;;4.23;3.30;;;17.70;99.90;;;;;;4810756;29;20801;-53
2023/05/09 07:07:44;;;;;;;4.30;3.70;;;17.40;99.90;;;;;;4807843;29;20600;-54
2023/05/09 07:10:13;;;;;;;4.97;3.47;;;17.30;99.90;;;;;;4808737;29;20670;-55
2023/05/09 07:12:41;;;;;;;5.87;3.50;;;17.00;99.90;;;;;;4808841;29;20428;-56
2023/05/09 07:15:10;;;;;;;4.27;3.70;;;17.00;99.90;;;;;;4809368;29;20596;-56
2023/05/09 07:17:39;;;;;;;6.00;3.53;;;17.20;99.90;;;;;;4807115;29;20241;-56
2023/05/09 07:20:08;;;;;;;4.60;3.37;;;17.30;99.90;;;;;;4807897;29;20286;-55
2023/05/09 07:22:36;;;;;;;4.67;3.43;;;17.30;99.90;;;;;;4808307;29;20248;-54
2023/05/09 07:25:08;;;;;;;4.13;3.70;;;17.20;99.90;;;;;;4808304;29;20241;-55
2023/05/09 07:27:37;;;;;;;4.13;3.60;;;17.00;99.90;;;;;;4800501;29;20424;-56
2023/05/09 07:30:08;;;;;;;4.33;3.63;;;17.00;99.90;;;;;;4808585;29;20246;-55
2023/05/09 07:32:36;;;;;;;4.10;3.70;;;17.10;99.90;;;;;;4807256;29;20324;-54
2023/05/09 07:35:05;;;;;;;4.43;3.57;;;16.90;99.90;;;;;;4808912;29;20264;-55
2023/05/09 07:37:33;;;;;;;4.00;3.60;;;16.90;99.90;;;;;;4805901;29;20237;-55
2023/05/09 07:40:02;;;;;;;6.03;4.10;;;17.10;99.90;;;;;;4823132;29;20256;-56
2023/05/09 07:42:32;;;;;;;4.90;3.93;;;17.50;99.90;;;;;;4808245;29;20239;-54
2023/05/09 07:45:00;;;;;;;6.03;3.77;;;17.70;99.90;;;;;;4809518;29;21098;-56
2023/05/09 07:47:28;;;;;;;4.30;3.67;;;18.20;99.90;;;;;;4810679;29;20254;-55
2023/05/09 07:49:56;;;;;;;4.70;3.83;;;18.50;99.90;;;;;;4811886;29;20257;-56
2023/05/09 07:52:24;;;;;;;4.03;3.43;;;18.60;99.90;;;;;;4811816;29;20895;-55
2023/05/09 07:54:53;;;;;;;5.23;3.53;;;18.90;99.90;;;;;;4812146;29;20235;-53
2023/05/09 07:57:21;;;;;;;4.50;3.60;;;18.90;99.90;;;;;;4810720;29;20255;-54
2023/05/09 07:59:51;;;;;;;4.30;3.90;;;19.00;99.90;;;;;;4812355;29;20257;-55
2023/05/09 08:02:19;;;;;;;5.37;3.80;;;19.30;99.90;;;;;;4811563;29;20256;-56
2023/05/09 08:04:48;;;;;;;4.97;3.70;;;19.60;99.90;;;;;;4811984;29;20751;-54
2023/05/09 08:07:16;;;;;;;4.60;4.03;;;19.60;99.90;;;;;;4811343;29;20595;-55
2023/05/09 08:09:44;;;;;;;8.00;4.03;;;19.60;99.90;;;;;;4809530;29;20313;-55
2023/05/09 08:12:12;;;;;;;4.23;3.67;;;19.60;99.90;;;;;;4811386;29;20239;-54
2023/05/09 08:14:40;;;;;;;6.83;4.00;;;19.90;99.90;;;;;;4811228;29;20319;-53
2023/05/09 08:17:10;;;;;;;4.00;3.60;;;20.20;99.90;;;;;;4810802;29;20238;-55
2023/05/09 08:19:38;;;;;;;4.80;4.00;;;20.40;99.90;;;;;;4810932;29;20246;-55
2023/05/09 08:22:06;;;;;;;5.07;4.10;;;20.70;99.90;;;;;;4811186;29;20303;-56
2023/05/09 08:24:34;;;;;;;7.00;4.37;;;20.90;99.90;;;;;;4811832;29;20608;-55
2023/05/09 08:27:02;;;;;;;8.03;4.40;;;20.80;99.90;;;;;;4810733;29;20834;-56
2023/05/09 08:29:30;;;;;;;5.73;4.43;;;20.90;99.90;;;;;;4811107;29;20232;-55
2023/05/09 08:31:58;;;;;;;4.63;4.20;;;21.10;99.90;;;;;;4810846;29;20254;-55
2023/05/09 08:34:30;;;;;;;6.03;4.17;;;21.30;99.90;;;;;;4811638;29;20243;-56
2023/05/09 08:36:58;;;;;;;5.07;4.30;;;21.20;99.90;;;;;;4810562;29;20733;-55
2023/05/09 08:39:26;;;;;;;4.80;4.30;;;21.10;99.90;;;;;;4808290;29;20239;-53
2023/05/09 08:41:58;;;;;;;4.87;4.40;;;21.50;99.90;;;;;;4806505;29;20243;-55
2023/05/09 08:44:28;;;;;;;6.03;4.63;;;21.50;99.90;;;;;;4808987;29;20339;-55
2023/05/09 08:46:59;;;;;;;7.73;4.83;;;21.40;99.90;;;;;;4806678;29;20759;-53
2023/05/09 08:49:29;;;;;;;4.90;4.27;;;21.40;99.90;;;;;;4807347;29;20287;-54
2023/05/09 08:51:57;;;;;;;6.23;4.20;;;21.40;99.90;;;;;;4806514;29;20263;-55
2023/05/09 08:54:26;;;;;;;5.30;4.33;;;21.60;99.90;;;;;;4808810;29;20708;-54
2023/05/09 08:56:54;;;;;;;6.90;4.80;;;21.60;99.90;;;;;;4807600;29;21085;-54
2023/05/09 08:59:23;;;;;;;7.27;4.50;;;21.80;99.90;;;;;;4807675;29;20354;-55
2023/05/09 09:01:53;;;;;;;7.53;4.43;;;22.00;99.90;;;;;;4806397;29;20752;-55
2023/05/09 09:04:22;;;;;;;5.40;4.20;;;22.10;99.90;;;;;;4808372;29;20242;-54
2023/05/09 09:06:53;;;;;;;6.03;5.17;;;22.50;99.90;;;;;;4806070;29;20592;-55
2023/05/09 09:09:23;;;;;;;7.93;5.03;;;22.90;99.90;;;;;;4804390;29;21707;-53
2023/05/09 09:11:52;;;;;;;4.83;4.43;;;23.10;99.90;;;;;;4807535;29;20802;-54
2023/05/09 09:14:25;;;;;;;6.47;4.70;;;22.80;99.90;;;;;;4807413;29;21341;-51
2023/05/09 09:16:55;;;;;;;5.63;4.10;;;22.70;99.90;;;;;;4805705;29;20248;-55
2023/05/09 09:19:29;;;;;;;7.00;4.20;;;23.00;99.90;;;;;;4807347;29;20730;-51
2023/05/09 09:22:03;;;;;;;5.30;4.80;;;23.20;99.90;;;;;;4806743;29;20339;-56
2023/05/09 09:24:31;;;;;;;5.47;4.73;;;23.30;99.90;;;;;;4807522;29;20250;-55
2023/05/09 09:27:05;;;;;;;7.90;5.07;;;23.20;99.90;;;;;;4805321;29;20272;-56
2023/05/09 09:29:34;;;;;;;5.80;5.00;;;23.30;99.90;;;;;;4806591;29;20326;-56
2023/05/09 09:32:03;;;;;;;6.30;4.90;;;23.20;99.90;;;;;;4806336;29;20240;-55
2023/05/09 09:34:31;;;;;;;5.93;4.43;;;23.10;99.90;;;;;;4808272;29;20232;-55
2023/05/09 09:37:01;;;;;;;7.03;4.50;;;23.40;99.90;;;;;;4809955;29;20246;-54
2023/05/09 09:39:29;;;;;;;5.27;4.77;;;23.40;99.90;;;;;;4809838;29;21266;-54
2023/05/09 09:42:09;;;;;;;6.23;4.50;;;23.60;99.90;;;;;;4806688;29;20236;-55
2023/05/09 09:44:37;;;;;;;8.23;4.17;;;23.90;99.90;;;;;;4807132;29;20261;-55
2023/05/09 09:47:09;;;;;;;5.30;4.73;;;24.30;99.90;;;;;;4804904;29;20630;-55
2023/05/09 09:49:38;;;;;;;6.57;4.70;;;24.00;99.90;;;;;;4805535;29;20253;-55
2023/05/09 09:52:07;;;;;;;4.83;4.33;;;23.80;99.90;;;;;;4809433;29;20233;-55
2023/05/09 09:54:35;;;;;;;5.83;4.83;;;23.90;99.90;;;;;;4810365;29;20241;-55
2023/05/09 09:57:03;;;;;;;8.57;4.57;;;24.10;99.90;;;;;;4809038;29;20731;-55
2023/05/09 09:59:31;;;;;;;8.50;4.43;;;24.10;99.90;;;;;;4809678;29;20249;-55
2023/05/09 10:02:01;;;;;;;5.17;3.90;;;24.10;99.90;;;;;;4809034;29;20248;-53
2023/05/09 10:04:36;;;;;;;6.30;4.40;;;24.50;99.90;;;;;;4810180;29;20245;-55
2023/05/09 10:07:09;;;;;;;5.10;3.80;;;24.90;99.90;;;;;;4808893;29;20261;-55
2023/05/09 10:09:42;;;;;;;4.67;4.27;;;24.70;99.90;;;;;;4803757;29;20263;-55
2023/05/09 10:12:13;;;;;;;5.00;3.60;;;24.50;99.90;;;;;;4806529;29;20598;-55
2023/05/09 10:14:43;;;;;;;5.00;3.40;;;24.90;99.90;;;;;;4807749;29;20259;-54
2023/05/09 10:17:14;;;;;;;5.27;3.30;;;24.90;99.90;;;;;;4804800;29;21347;-55
2023/05/09 10:19:46;;;;;;;4.37;3.30;;;24.70;99.90;;;;;;4807898;29;20340;-52
2023/05/09 10:22:17;;;;;;;4.23;3.17;;;24.80;99.90;;;;;;4807871;29;20250;-56
2023/05/09 10:24:48;;;;;;;5.27;3.27;;;24.70;99.90;;;;;;4810267;29;20871;-56
2023/05/09 10:27:21;;;;;;;6.73;3.37;;;24.90;99.90;;;;;;4809891;29;20788;-56
2023/05/09 10:29:51;;;;;;;3.30;3.00;;;25.40;99.60;;;;;;4809986;29;20242;-56
2023/05/09 10:32:25;;;;;;;3.60;3.13;;;24.80;98.00;;;;;;4809190;29;20238;-56
2023/05/09 10:34:57;;;;;;;3.50;3.10;;;24.40;98.90;;;;;;4810737;29;20232;-55
2023/05/09 10:37:27;;;;;;;4.13;2.93;;;24.40;97.70;;;;;;4807821;29;21228;-55
2023/05/09 10:39:56;;;;;;;4.10;2.97;;;24.40;96.80;;;;;;4812979;29;20245;-55
2023/05/09 10:42:25;;;;;;;2.97;2.50;;;24.70;97.20;;;;;;4812554;29;20235;-56
2023/05/09 10:44:54;;;;;;;3.00;2.70;;;24.70;95.90;;;;;;4813779;29;20249;-55
2023/05/09 10:47:22;;;;;;;6.77;2.77;;;24.70;95.20;;;;;;4811940;29;20291;-56
2023/05/09 10:49:50;;;;;;;4.50;2.63;;;24.50;94.80;;;;;;4813202;29;20687;-56
2023/05/09 10:52:21;;;;;;;3.33;2.77;;;24.40;94.80;;;;;;4812490;29;20245;-54
2023/05/09 10:55:00;;;;;;;5.70;2.47;;;24.20;94.50;;;;;;4811531;29;20364;-56
2023/05/09 10:57:29;;;;;;;2.97;2.53;;;24.50;94.30;;;;;;4808759;29;20297;-56
2023/05/09 10:59:59;;;;;;;3.47;2.37;;;24.90;93.90;;;;;;4810487;29;20290;-56
2023/05/09 11:02:29;;;;;;;2.80;2.60;;;25.20;93.10;;;;;;4810300;29;20253;-55
2023/05/09 11:05:14;;;;;;;7.50;3.07;;;25.10;93.20;;;;;;4812534;29;20236;-55
2023/05/09 11:07:43;;;;;;;6.13;2.80;;;24.70;93.60;;;;;;4812865;29;20649;-56
2023/05/09 11:10:17;;;;;;;5.17;3.10;;;24.80;93.00;;;;;;4812423;29;20316;-56
2023/05/09 11:12:56;;;;;;;3.53;2.90;;;24.90;93.20;;;;;;4811254;29;20245;-55
2023/05/09 11:15:27;;;;;;;3.70;2.80;;;24.90;93.50;;;;;;4810815;29;20242;-55
2023/05/09 11:18:06;;;;;;;3.10;2.80;;;24.70;93.30;;;;;;4807798;29;20691;-56
2023/05/09 11:20:35;;;;;;;3.13;2.70;;;25.00;92.90;;;;;;4809857;29;20245;-55
2023/05/09 11:23:10;;;;;;;3.93;2.90;;;24.80;92.40;;;;;;4810826;29;20237;-56
2023/05/09 11:25:45;;;;;;;3.83;2.90;;;24.60;92.60;;;;;;4810564;29;20248;-55
2023/05/09 11:28:27;;;;;;;2.80;2.60;;;24.90;92.70;;;;;;4808125;29;20252;-56
2023/05/09 11:31:09;;;;;;;4.30;2.63;;;25.20;92.70;;;;;;4808980;29;20256;-56
2023/05/09 11:33:39;;;;;;;3.40;2.93;;;25.10;92.00;;;;;;4812516;29;20367;-56
2023/05/09 11:36:18;;;;;;;2.63;2.40;;;25.20;91.70;;;;;;4813264;29;20569;-56
2023/05/09 11:38:47;;;;;;;3.20;2.90;;;25.00;91.60;;;;;;4811706;29;21133;-55
2023/05/09 11:41:16;;;;;;;4.00;2.60;;;25.00;91.70;;;;;;4812786;29;20239;-55
2023/05/09 11:43:44;;;;;;;3.07;2.70;;;25.30;91.70;;;;;;4813480;29;20280;-55
2023/05/09 11:46:12;;;;;;;4.27;2.53;;;25.10;91.10;;;;;;4811202;29;20237;-54
2023/05/09 11:48:41;;;;;;;3.10;2.77;;;25.10;91.40;;;;;;4808528;29;20242;-56
2023/05/09 11:51:17;;;;;;;3.20;2.73;;;25.10;90.40;;;;;;4812995;29;20801;-56
2023/05/09 11:53:46;;;;;;;3.73;2.47;;;25.10;91.10;;;;;;4813566;29;20242;-54
2023/05/09 11:56:16;;;;;;;5.20;2.50;;;24.40;90.00;;;;;;4811060;29;20649;-56
2023/05/09 11:58:45;;;;;;;2.83;2.63;;;24.30;91.00;;;;;;4807327;29;20237;-56
2023/05/09 12:01:13;;;;;;;4.17;2.70;;;24.30;91.30;;;;;;4810022;29;20812;-55
2023/05/09 12:03:44;;;;;;;3.97;2.43;;;24.30;91.70;;;;;;4810701;29;20614;-55
2023/05/09 12:06:16;;;;;;;2.77;2.53;;;24.40;91.60;;;;;;4810575;29;20846;-56
2023/05/09 12:08:45;;;;;;;3.57;2.93;;;24.60;90.90;;;;;;4805738;29;20242;-55
2023/05/09 12:11:14;;;;;;;3.90;2.70;;;24.20;91.20;;;;;;4809196;29;20241;-57
2023/05/09 12:13:47;;;;;;;3.27;2.40;;;24.20;90.80;;;;;;4810108;29;20721;-56
2023/05/09 12:16:16;;;;;;;2.90;2.40;;;24.20;90.50;;;;;;4810102;29;21282;-54
2023/05/09 12:18:46;;;;;;;3.53;2.80;;;24.30;90.50;;;;;;4810827;29;20248;-54
2023/05/09 12:21:14;;;;;;;3.80;2.47;;;24.30;90.80;;;;;;4812832;29;20256;-54
2023/05/09 12:23:42;;;;;;;4.70;2.80;;;24.40;91.00;;;;;;4812062;29;20239;-56
2023/05/09 12:26:11;;;;;;;3.47;3.00;;;24.50;91.40;;;;;;4809874;29;20279;-55
2023/05/09 12:28:39;;;;;;;3.67;2.73;;;24.60;91.00;;;;;;4807463;29;20246;-54
2023/05/09 12:31:09;;;;;;;5.23;2.80;;;24.70;90.50;;;;;;4809880;29;20252;-56
2023/05/09 12:33:38;;;;;;;4.13;3.10;;;24.50;88.60;;;;;;4809768;29;20249;-55
2023/05/09 12:36:09;;;;;;;4.87;3.03;;;24.60;90.50;;;;;;4809135;29;20646;-54
2023/05/09 12:38:38;;;;;;;4.40;3.40;;;24.60;90.20;;;;;;4809292;29;20714;-54
2023/05/09 12:41:08;;;;;;;5.30;3.30;;;24.30;89.50;;;;;;4809728;29;20342;-54
2023/05/09 12:43:56;;;;;;;5.50;3.00;;;24.40;90.10;;;;;;4810183;29;20286;-56
2023/05/09 12:46:25;;;;;;;3.20;2.87;;;24.40;90.40;;;;;;4809849;29;20718;-52
2023/05/09 12:48:54;;;;;;;2.90;2.70;;;24.40;88.90;;;;;;4808853;29;20244;-56
2023/05/09 12:51:23;;;;;;;3.20;2.67;;;24.30;89.80;;;;;;4809801;29;20590;-56
2023/05/09 12:53:52;;;;;;;5.17;2.80;;;24.10;90.40;;;;;;4811475;29;20664;-56
2023/05/09 12:56:22;;;;;;;4.57;2.83;;;24.00;89.80;;;;;;4811057;29;20359;-56
2023/05/09 12:58:52;;;;;;;3.87;2.80;;;24.00;90.20;;;;;;4811309;29;20260;-56
2023/05/09 13:01:21;;;;;;;5.80;2.90;;;24.10;90.90;;;;;;4813321;29;20245;-56
2023/05/09 13:04:01;;;;;;;5.63;2.80;;;24.30;90.40;;;;;;4813488;29;20269;-56